Latest Weather Observations for Bickley

IDW60901

Issued at 2:41 pm WST Thursday 18 August 2022 (issued every 10 minutes, with the page automatically refreshed every 10 minutes)

About weather observations | Map of Perth area stations | Latest observations for Perth area | Other Formats
Station Details ID: 009240 Name: BICKLEY Lat: -32.01 Lon: 116.14 Height: 384.0 m
Data from the previous 72 hours. | See also: Recent months at Bickley
Date/Time
WST
Temp
°C
App
Temp
°C
Dew
Point
°C
Rel
Hum
%
Delta-T
°C
Wind Press
QNH
hPa
Press
MSL
hPa
Rain since
9am
mm
Dir  Spd
km/h
Gust
km/h
Spd
kts
Gust
kts
18/02:30pm 13.9 11.2 7.2 64 3.3 W 11 20 6 11 - - 0.0
18/02:00pm 14.1 10.1 6.5 60 3.7 W 17 26 9 14 - - 0.0
18/01:30pm 14.0 11.6 6.8 62 3.6 W 9 15 5 8 - - 0.0
18/01:00pm 13.3 10.0 6.6 64 3.3 W 13 22 7 12 - - 0.0
18/12:30pm 13.6 10.7 6.5 62 3.5 WSW 11 22 6 12 - - 0.0
18/12:00pm 13.7 10.5 6.8 63 3.4 W 13 20 7 11 - - 0.0
18/11:30am 12.8 10.7 5.9 63 3.3 WSW 6 9 3 5 - - 0.0
18/11:00am 12.3 10.9 5.5 63 3.2 NE 2 7 1 4 - - 0.0
18/10:30am 11.4 8.9 4.6 63 3.1 NE 7 13 4 7 - - 0.0
18/10:00am 11.3 8.8 4.7 64 3.1 NNE 7 11 4 6 - - 0.0
18/09:30am 10.6 7.7 4.5 66 2.8 NE 9 13 5 7 - - 0.0
18/09:00am 9.6 7.1 4.6 71 2.3 ENE 7 11 4 6 - - 12.0
18/08:30am 7.8 5.6 6.1 89 0.8 ENE 7 11 4 6 - - 12.0
18/08:00am 6.2 3.7 4.5 89 0.8 ENE 7 9 4 5 - - 12.0
18/07:30am 5.0 1.8 3.2 88 0.8 ENE 9 11 5 6 - - 12.0
18/07:00am 4.8 1.6 3.1 89 0.7 E 9 9 5 5 - - 12.0
18/06:30am 5.1 2.0 3.6 90 0.6 E 9 11 5 6 - - 12.0
18/06:00am 4.9 2.1 3.1 88 0.8 ESE 7 9 4 5 - - 12.0
18/05:30am 5.4 2.3 3.7 89 0.7 SE 9 11 5 6 - - 12.0
18/05:00am 5.5 2.5 4.0 90 0.6 SE 9 11 5 6 - - 12.0
18/04:30am 5.6 2.3 4.6 93 0.4 SE 11 13 6 7 - - 12.0
18/04:00am 5.9 2.8 5.5 97 0.2 SSE 11 13 6 7 - - 12.0
18/03:30am 6.0 2.6 5.7 98 0.1 SSE 13 15 7 8 - - 12.0
18/03:00am 6.1 3.5 6.0 99 0.0 SSE 9 13 5 7 - - 12.0
18/02:30am 5.8 3.1 5.7 99 0.0 SSE 9 13 5 7 - - 12.0
18/02:00am 5.9 2.9 5.8 99 0.0 SSE 11 13 6 7 - - 11.8
18/01:30am 5.7 2.2 5.6 99 0.0 S 13 15 7 8 - - 11.8
18/01:00am 5.8 2.4 5.7 99 0.0 S 13 17 7 9 - - 11.8
18/12:30am 5.9 2.5 5.8 99 0.0 SSE 13 20 7 11 - - 11.8
18/12:00am 5.7 2.2 5.6 99 0.0 SSE 13 17 7 9 - - 11.8
 
Date/Time
WST
Temp
°C
App
Temp
°C
Dew
Point
°C
Rel
Hum
%
Delta-T
°C
Wind Press
QNH
hPa
Press
MSL
hPa
Rain since
9am
mm
Dir  Spd
km/h
Gust
km/h
Spd
kts
Gust
kts
17/11:30pm 5.7 2.2 5.6 99 0.0 S 13 20 7 11 - - 11.8
17/11:00pm 5.5 2.0 5.4 99 0.0 S 13 17 7 9 - - 11.8
17/10:30pm 5.6 2.1 5.5 99 0.0 SSW 13 17 7 9 - - 11.8
17/10:00pm 5.9 2.5 5.8 99 0.0 SSW 13 17 7 9 - - 11.8
17/09:30pm 5.9 2.5 5.8 99 0.0 SSW 13 17 7 9 - - 11.8
17/09:00pm 6.3 3.0 6.2 99 0.0 S 13 20 7 11 - - 11.8
17/08:30pm 6.4 3.8 6.3 99 0.0 SSE 9 13 5 7 - - 11.8
17/08:00pm 6.6 4.1 6.5 99 0.0 S 9 15 5 8 - - 11.8
17/07:30pm 6.9 4.5 6.8 99 0.0 S 9 13 5 7 - - 11.8
17/07:00pm 7.2 4.8 7.1 99 0.0 S 9 15 5 8 - - 11.6
17/06:30pm 7.3 4.9 7.2 99 0.0 SE 9 13 5 7 - - 11.6
17/06:00pm 7.6 5.7 7.5 99 0.0 S 7 15 4 8 - - 11.0
17/05:30pm 7.9 5.3 7.8 99 0.0 SE 11 20 6 11 - - 9.8
17/05:00pm 7.8 6.1 7.7 99 0.0 E 6 9 3 5 - - 9.8
17/04:30pm 7.7 6.8 7.6 99 0.0 NNW 2 7 1 4 - - 9.8
17/04:00pm 7.6 5.7 7.5 99 0.0 W 7 15 4 8 - - 9.8
17/03:30pm 7.7 4.6 7.4 98 0.1 SW 13 24 7 13 - - 8.0
17/03:00pm 7.7 3.8 7.0 95 0.3 SW 17 24 9 13 - - 6.8
17/02:30pm 8.9 5.1 7.5 91 0.7 WSW 17 39 9 21 - - 4.8
17/02:00pm 11.7 9.0 7.2 74 2.2 WSW 11 20 6 11 - - 2.2
17/01:30pm 12.4 9.3 7.3 71 2.5 W 13 22 7 12 - - 2.2
17/01:00pm 12.0 9.6 8.5 79 1.8 W 11 20 6 11 - - 2.2
17/12:30pm 10.3 6.0 7.2 81 1.5 W 19 28 10 15 - - 2.2
17/12:00pm 12.3 8.3 8.2 76 2.1 WSW 19 30 10 16 - - 1.8
17/11:30am 11.3 5.2 6.8 74 2.2 WSW 28 48 15 26 - - 1.8
17/11:05am 12.1 6.1 7.0 71 2.5 W 28 46 15 25 - - 1.8
17/11:00am 12.1 7.4 7.6 74 2.2 WNW 22 46 12 25 - - 1.8
17/10:30am 9.9 4.6 6.6 80 1.6 WNW 24 33 13 18 - - 1.8
17/10:00am 7.6 3.0 5.7 88 0.9 WNW 19 32 10 17 - - 1.8
17/09:30am 6.8 -0.7 4.5 85 1.0 W 33 91 18 49 - - 1.6
17/09:26am 7.2 0.6 4.2 81 1.3 W 28 91 15 49 - - 1.4
17/09:00am 9.1 4.6 6.0 81 1.5 W 19 32 10 17 - - 25.4
17/08:47am 8.7 2.4 5.8 82 1.3 W 28 46 15 25 - - 25.4
17/08:30am 9.1 4.5 6.7 85 1.1 WNW 20 33 11 18 - - 25.4
17/08:00am 8.6 3.5 6.2 85 1.1 WNW 22 32 12 17 - - 25.4
17/07:30am 7.9 2.7 7.1 95 0.4 W 24 39 13 21 - - 25.4
17/07:07am 8.2 2.2 7.1 93 0.5 WNW 28 61 15 33 - - 25.2
17/07:00am 7.9 2.9 6.5 91 0.7 W 22 43 12 23 - - 25.2
17/06:39am 7.7 1.5 6.3 91 0.7 W 28 46 15 25 - - 24.8
17/06:30am 7.6 1.1 6.7 94 0.4 W 30 43 16 23 - - 24.8
17/06:00am 7.7 0.6 6.2 90 0.7 W 33 72 18 39 - - 24.2
17/05:59am 7.9 0.9 6.2 89 0.8 W 32 72 17 39 - - 24.0
17/05:30am 7.8 1.9 7.5 98 0.1 W 28 52 15 28 - - 23.4
17/05:00am 7.6 0.0 7.5 99 0.0 WNW 37 69 20 37 - - 22.2
17/04:55am 9.0 3.4 8.9 99 0.0 W 28 54 15 29 - - 19.6
17/04:30am 9.1 5.1 9.0 99 0.1 W 20 39 11 21 - - 19.0
17/04:00am 8.8 6.0 8.7 99 0.0 WNW 13 22 7 12 - - 18.8
17/03:30am 8.6 3.7 8.5 99 0.0 W 24 39 13 21 - - 17.8
17/03:11am 9.0 3.4 8.9 99 0.0 W 28 57 15 31 - - 17.8
17/03:00am 9.3 5.3 9.2 99 0.1 W 20 39 11 21 - - 14.8
17/02:30am 9.3 6.3 9.2 99 0.1 NNW 15 26 8 14 - - 11.0
17/02:00am 9.2 6.5 9.1 99 0.1 WNW 13 17 7 9 - - 11.0
17/01:30am 9.4 5.5 9.3 99 0.1 WNW 20 32 11 17 - - 11.0
17/01:00am 9.2 5.4 9.1 99 0.1 NW 19 33 10 18 - - 10.4
17/12:30am 9.0 5.5 8.9 99 0.0 NNW 17 26 9 14 - - 10.0
17/12:00am 9.3 5.5 9.2 99 0.1 WNW 19 32 10 17 - - 10.0
 
Date/Time
WST
Temp
°C
App
Temp
°C
Dew
Point
°C
Rel
Hum
%
Delta-T
°C
Wind Press
QNH
hPa
Press
MSL
hPa
Rain since
9am
mm
Dir  Spd
km/h
Gust
km/h
Spd
kts
Gust
kts
16/11:40pm 9.5 4.0 9.2 98 0.2 NW 28 61 15 33 - - 10.0
16/11:30pm 9.7 5.7 9.2 97 0.3 NW 20 32 11 17 - - 8.6
16/11:00pm 9.7 5.2 8.6 93 0.5 NW 22 39 12 21 - - 8.2
16/10:30pm 9.7 5.1 8.0 89 0.8 NW 22 44 12 24 - - 7.8
16/10:00pm 10.4 5.8 8.0 85 1.2 NW 22 35 12 19 - - 7.0
16/09:30pm 10.9 6.6 8.0 82 1.4 NW 20 33 11 18 - - 6.4
16/09:00pm 11.2 7.1 7.7 79 1.7 NW 19 30 10 16 - - 6.4
16/08:30pm 11.6 7.3 7.1 74 2.2 NW 19 33 10 18 - - 6.4
16/08:00pm 11.7 7.2 6.8 72 2.4 NW 20 35 11 19 - - 6.4
16/07:30pm 12.0 7.6 7.5 74 2.2 WNW 20 33 11 18 - - 6.4
16/07:00pm 12.3 8.6 6.4 67 2.9 WNW 15 24 8 13 - - 6.4
16/06:30pm 12.3 7.2 5.9 65 3.1 WNW 22 39 12 21 - - 6.4
16/06:00pm 12.6 6.5 6.4 66 3.0 WNW 28 50 15 27 - - 6.4
16/05:52pm 12.7 6.6 6.5 66 3.0 WNW 28 52 15 28 - - 6.4
16/05:30pm 13.1 8.7 7.5 69 2.8 WNW 20 32 11 17 - - 6.4
16/05:00pm 13.3 6.9 6.9 65 3.2 WNW 30 48 16 26 - - 6.4
16/04:30pm 13.5 7.4 8.1 70 2.7 WNW 30 48 16 26 - - 6.4
16/04:09pm 13.9 8.2 8.5 70 2.8 WNW 28 48 15 26 - - 6.4
16/04:00pm 14.0 9.4 9.6 75 2.3 WNW 24 44 13 24 - - 6.4
16/03:30pm 13.8 7.2 8.4 70 2.8 WNW 33 57 18 31 - - 6.4
16/03:16pm 13.9 8.5 9.5 75 2.3 WNW 28 48 15 26 - - 6.4
16/03:00pm 13.6 9.1 10.2 80 1.8 WNW 24 46 13 25 - - 6.4
16/02:30pm 13.9 11.0 13.0 94 0.5 W 20 39 11 21 - - 6.4
16/02:12pm 12.7 7.8 12.4 98 0.2 W 30 52 16 28 - - 6.4
16/02:09pm 12.9 8.4 12.7 99 0.1 WNW 28 52 15 28 - - 6.4
16/02:00pm 14.1 11.2 13.9 99 0.1 WNW 22 41 12 22 - - 5.8
16/01:30pm 13.1 10.8 13.1 100 0.0 WNW 17 28 9 15 - - 5.8
16/01:00pm 12.9 11.0 12.9 100 0.0 WNW 15 28 8 15 - - 5.8
16/12:30pm 12.3 9.4 12.3 100 0.0 WNW 19 39 10 21 - - 5.8
16/12:00pm 11.8 8.6 11.8 100 0.0 WNW 20 41 11 22 - - 5.0
16/11:31am 12.5 8.0 12.5 100 0.0 WNW 28 50 15 27 - - 3.8
16/11:30am 12.5 8.3 12.5 100 0.0 WNW 26 50 14 27 - - 3.8
16/11:00am 12.5 10.4 12.5 100 0.0 WNW 15 26 8 14 - - 1.6
16/10:30am 12.0 8.8 12.0 100 0.0 WNW 20 32 11 17 - - 1.4
16/10:00am 12.1 7.4 12.1 100 0.0 W 28 43 15 23 - - 1.0
16/09:30am 13.2 9.3 13.2 100 0.0 W 26 57 14 31 - - 0.0
16/09:07am 13.1 8.8 13.1 100 0.0 W 28 48 15 26 - - 0.0
16/09:00am 13.4 9.5 13.4 100 0.0 WNW 26 43 14 23 - - 28.6
16/08:30am 14.1 11.6 14.1 100 0.0 NW 20 33 11 18 - - 25.6
16/08:00am 14.0 12.8 14.0 100 0.0 WNW 13 22 7 12 - - 25.2
16/07:30am 14.0 12.0 14.0 100 0.0 WNW 17 30 9 16 - - 25.2
16/07:00am 14.2 11.7 14.2 100 0.0 WNW 20 30 11 16 - - 25.2
16/06:30am 14.5 11.8 14.5 100 0.0 W 22 39 12 21 - - 25.0
16/06:00am 14.8 11.8 14.8 100 0.0 W 24 46 13 25 - - 24.8
16/05:30am 15.1 13.0 15.1 100 0.0 W 20 44 11 24 - - 23.0
16/05:00am 15.3 11.7 15.3 100 0.0 WNW 28 46 15 25 - - 21.4
16/04:51am 15.3 11.7 15.3 100 0.0 WNW 28 50 15 27 - - 21.4
16/04:30am 15.4 13.0 15.4 100 0.0 W 22 41 12 22 - - 20.6
16/04:00am 15.8 12.0 15.8 100 0.0 WNW 30 50 16 27 - - 20.6
16/03:30am 16.4 12.9 16.4 100 0.0 NW 30 59 16 32 - - 20.2
16/03:11am 16.5 13.4 16.5 100 0.0 NW 28 48 15 26 - - 20.0
16/03:00am 16.5 14.1 16.5 100 0.0 NW 24 50 13 27 - - 20.0
16/02:33am 16.5 13.4 16.5 100 0.0 NW 28 57 15 31 - - 19.6
16/02:30am 16.5 13.8 16.5 100 0.0 NNW 26 43 14 23 - - 19.6
16/02:21am 16.6 13.5 16.6 100 0.0 NW 28 48 15 26 - - 19.6
16/02:00am 16.6 14.7 16.6 100 0.0 NNW 22 44 12 24 - - 19.4
16/01:30am 16.6 14.3 16.6 100 0.0 NNW 24 46 13 25 - - 18.6
16/01:00am 16.6 15.0 16.6 100 0.0 N 20 41 11 22 - - 18.2
16/12:30am 16.6 14.3 16.6 100 0.0 N 24 48 13 26 - - 17.8
16/12:00am 16.6 14.7 16.6 100 0.0 N 22 43 12 23 - - 17.2
 
Date/Time
WST
Temp
°C
App
Temp
°C
Dew
Point
°C
Rel
Hum
%
Delta-T
°C
Wind Press
QNH
hPa
Press
MSL
hPa
Rain since
9am
mm
Dir  Spd
km/h
Gust
km/h
Spd
kts
Gust
kts
15/11:30pm 16.6 13.1 16.6 100 0.0 NNW 30 48 16 26 - - 15.8
15/11:00pm 16.3 12.7 16.3 100 0.0 N 30 50 16 27 - - 13.6
15/10:56pm 16.3 13.1 16.3 100 0.0 N 28 50 15 27 - - 13.4
15/10:30pm 15.9 14.1 15.9 100 0.0 N 20 35 11 19 - - 11.2
15/10:00pm 15.3 13.4 15.3 100 0.0 N 19 30 10 16 - - 10.4
15/09:30pm 14.9 13.3 14.9 100 0.0 NNE 17 28 9 15 - - 10.4
15/09:00pm 14.6 12.8 14.4 99 0.1 NNE 17 28 9 15 - - 10.4
15/08:30pm 14.4 12.5 14.2 99 0.1 NNE 17 30 9 16 - - 10.2
15/08:00pm 14.3 13.1 14.1 99 0.1 NNW 13 26 7 14 - - 8.2
15/07:30pm 14.2 12.2 14.0 99 0.1 NNE 17 24 9 13 - - 4.4
15/07:00pm 14.0 11.4 13.7 98 0.2 NE 20 30 11 16 - - 4.0
15/06:30pm 14.1 12.5 12.8 92 0.7 N 13 17 7 9 - - 3.0
15/06:00pm 14.5 12.8 12.5 88 1.1 N 13 22 7 12 - - 1.6
15/05:30pm 16.6 15.0 11.5 72 2.8 N 11 17 6 9 - - 0.6
15/05:00pm 18.0 16.8 11.6 66 3.6 NNE 9 13 5 7 - - 0.0
15/04:30pm 18.6 17.0 10.2 58 4.6 N 9 17 5 9 - - 0.0
15/04:00pm 19.0 17.4 10.3 57 4.8 NNW 9 17 5 9 - - 0.0
15/03:30pm 19.3 15.6 8.0 48 5.9 NNW 17 30 9 16 - - 0.0
15/03:00pm 20.0 17.0 9.3 50 5.8 NNW 15 33 8 18 - - 0.0

Latest Capital City Observations: Canberra | Sydney | Melbourne | Brisbane | Adelaide | Perth | Hobart | Darwin

Other formats

Comma delimited format used in spreadsheet applications
http://www.bom.gov.au/fwo/IDW60901/IDW60901.95610.axf

JavaScript Object Notation format (JSON) in row-major order
http://www.bom.gov.au/fwo/IDW60901/IDW60901.95610.json

Data quality

Most of these data are generated automatically and are frequently updated. Quality checks on data are not normally performed. It is possible for incorrect values to appear. Refer to information at About Latest Weather Observations and please check the disclaimer before using these data.